Time;durP1;ratioP1;P1;durP2;ratioP2;P2;SDS_P1;SDS_P2;PMS_P1;PMS_P2;Temp;Humidity;BMP_temperature;BMP_pressure;BME280_temperature;BME280_humidity;BME280_pressure;Samples;Min_cycle;Max_cycle;Signal;HPM_P1;HPM_P2
2023/12/23 00:01:21;;;;;;;33.97;21.20;;;2.20;99.90;;;;;;5094292;28;20069;-81
2023/12/23 00:03:47;;;;;;;36.85;23.02;;;2.20;99.90;;;;;;5097181;28;20380;-81
2023/12/23 00:06:13;;;;;;;36.63;24.58;;;2.20;99.90;;;;;;5096377;28;20103;-81
2023/12/23 00:08:38;;;;;;;38.30;22.48;;;2.20;99.90;;;;;;5094856;28;20020;-80
2023/12/23 00:11:05;;;;;;;37.00;25.75;;;2.20;99.90;;;;;;5107707;28;20045;-81
2023/12/23 00:13:31;;;;;;;37.95;24.38;;;2.20;99.90;;;;;;5111177;28;20024;-80
2023/12/23 00:15:57;;;;;;;34.33;23.38;;;2.30;99.90;;;;;;5091996;28;20500;-81
2023/12/23 00:18:23;;;;;;;35.17;25.30;;;2.30;99.90;;;;;;5104471;28;20030;-82
2023/12/23 00:20:48;;;;;;;35.42;22.42;;;2.20;99.90;;;;;;5097323;28;20019;-80
2023/12/23 00:23:14;;;;;;;41.38;28.13;;;2.30;99.90;;;;;;5101944;28;20118;-81
2023/12/23 00:25:40;;;;;;;36.60;26.38;;;2.30;99.90;;;;;;5109682;28;20032;-80
2023/12/23 00:28:06;;;;;;;37.80;25.15;;;2.30;99.90;;;;;;5095924;28;20016;-80
2023/12/23 00:30:32;;;;;;;37.85;24.80;;;2.30;99.90;;;;;;5110502;28;20030;-80
2023/12/23 00:32:58;;;;;;;40.47;26.48;;;2.30;99.90;;;;;;5106263;28;20020;-81
2023/12/23 00:35:26;;;;;;;41.72;27.63;;;2.30;99.90;;;;;;5100911;28;20106;-81
2023/12/23 00:37:52;;;;;;;43.20;26.90;;;2.30;99.90;;;;;;5107966;28;20103;-82
2023/12/23 00:40:18;;;;;;;39.97;27.02;;;2.30;99.90;;;;;;5090302;28;20110;-81
2023/12/23 00:42:44;;;;;;;42.95;25.15;;;2.40;99.90;;;;;;5108100;28;20031;-81
2023/12/23 00:45:10;;;;;;;36.33;24.33;;;2.40;99.90;;;;;;5103954;28;20043;-80
2023/12/23 00:47:35;;;;;;;40.63;25.98;;;2.40;99.90;;;;;;5100928;28;20024;-81
2023/12/23 00:50:01;;;;;;;40.47;27.75;;;2.50;99.90;;;;;;5102070;28;20059;-80
2023/12/23 00:52:28;;;;;;;41.58;27.60;;;2.50;99.90;;;;;;5103010;28;20021;-80
2023/12/23 00:54:55;;;;;;;37.35;25.27;;;2.60;99.90;;;;;;5113558;28;20024;-80
2023/12/23 00:57:21;;;;;;;40.08;26.30;;;2.60;99.90;;;;;;5111639;28;20027;-80
2023/12/23 00:59:47;;;;;;;47.28;27.38;;;2.60;99.90;;;;;;5098490;28;20050;-81
2023/12/23 01:02:14;;;;;;;38.85;24.55;;;2.50;99.90;;;;;;5095312;28;20599;-80
2023/12/23 01:04:40;;;;;;;40.83;26.92;;;2.50;99.90;;;;;;5096477;28;20212;-81
2023/12/23 01:07:06;;;;;;;37.38;23.83;;;2.50;99.90;;;;;;5115354;28;20476;-80
2023/12/23 01:09:32;;;;;;;35.70;23.13;;;2.60;99.90;;;;;;5112960;28;20492;-80
2023/12/23 01:11:57;;;;;;;34.75;24.45;;;2.50;99.90;;;;;;5110464;28;20461;-81
2023/12/23 01:14:23;;;;;;;38.50;25.48;;;2.50;99.90;;;;;;5107211;28;20020;-80
2023/12/23 01:16:49;;;;;;;38.88;23.40;;;2.60;99.90;;;;;;5102240;28;20061;-79
2023/12/23 01:19:15;;;;;;;41.28;22.15;;;2.60;99.90;;;;;;5100481;28;20036;-82
2023/12/23 01:21:41;;;;;;;33.92;22.27;;;2.60;99.90;;;;;;5108897;28;20068;-82
2023/12/23 01:24:06;;;;;;;37.45;21.00;;;2.60;99.90;;;;;;5098323;28;20465;-82
2023/12/23 01:26:32;;;;;;;37.75;23.75;;;2.60;99.90;;;;;;5105559;28;20053;-83
2023/12/23 01:29:00;;;;;;;31.35;21.30;;;2.60;99.90;;;;;;5100908;28;20034;-82
2023/12/23 01:31:29;;;;;;;;;;;2.50;99.90;;;;;;5103997;28;20496;-81
2023/12/23 01:33:54;;;;;;;31.70;22.92;;;2.50;99.90;;;;;;5109840;28;19974;-80
2023/12/23 01:36:20;;;;;;;28.55;18.65;;;2.50;99.90;;;;;;5116589;28;20045;-80
2023/12/23 01:38:46;;;;;;;37.63;22.75;;;2.60;99.90;;;;;;5103907;28;20381;-80
2023/12/23 01:41:12;;;;;;;35.30;21.73;;;2.60;99.90;;;;;;5099426;28;20018;-82
2023/12/23 01:43:38;;;;;;;31.05;22.00;;;2.50;99.90;;;;;;5103631;28;20173;-81
2023/12/23 01:46:04;;;;;;;33.10;20.15;;;2.60;99.90;;;;;;5107406;28;20043;-81
2023/12/23 01:48:36;;;;;;;32.53;21.10;;;2.60;99.90;;;;;;5094415;28;20378;-82
2023/12/23 01:51:02;;;;;;;39.67;22.50;;;2.60;99.90;;;;;;5108571;28;20414;-81
2023/12/23 01:53:30;;;;;;;33.25;20.98;;;2.60;99.90;;;;;;5094321;28;20024;-82
2023/12/23 01:55:56;;;;;;;29.13;20.35;;;2.60;99.90;;;;;;5094030;28;20020;-80
2023/12/23 01:58:22;;;;;;;29.83;21.40;;;2.60;99.90;;;;;;5110051;28;20055;-80
2023/12/23 02:00:49;;;;;;;35.97;22.48;;;2.60;99.90;;;;;;5097135;28;20133;-82
2023/12/23 02:03:14;;;;;;;36.35;20.98;;;2.60;99.90;;;;;;5108327;28;20023;-80
2023/12/23 02:05:40;;;;;;;38.17;22.05;;;2.60;99.90;;;;;;5100046;28;20032;-82
2023/12/23 02:08:06;;;;;;;33.35;23.52;;;2.50;99.90;;;;;;5098998;28;20045;-81
2023/12/23 02:10:33;;;;;;;31.85;22.83;;;2.50;99.90;;;;;;5106850;28;20028;-82
2023/12/23 02:13:19;;;;;;;38.05;24.25;;;2.60;99.90;;;;;;5094037;28;20380;-81
2023/12/23 02:15:47;;;;;;;38.00;23.30;;;2.60;99.90;;;;;;5098454;28;20019;-80
2023/12/23 02:18:13;;;;;;;32.60;21.27;;;2.60;99.90;;;;;;5103353;28;20020;-80
2023/12/23 02:20:39;;;;;;;35.42;23.42;;;2.50;99.90;;;;;;5096455;28;20433;-82
2023/12/23 02:23:05;;;;;;;30.92;21.42;;;2.50;99.90;;;;;;5114477;28;20016;-82
2023/12/23 02:25:32;;;;;;;34.83;22.15;;;2.50;99.90;;;;;;5111786;28;20400;-82
2023/12/23 02:28:09;;;;;;;31.27;20.92;;;2.50;99.90;;;;;;5092547;28;20028;-82
2023/12/23 02:30:38;;;;;;;;;;;2.40;99.90;;;;;;5092739;28;20032;-82
2023/12/23 02:33:04;;;;;;;24.20;16.95;;;2.40;99.90;;;;;;5093640;28;20407;-82
2023/12/23 02:35:30;;;;;;;25.15;16.65;;;2.30;99.90;;;;;;5097092;28;20048;-83
2023/12/23 02:37:56;;;;;;;23.42;16.67;;;2.30;99.90;;;;;;5097508;28;20055;-82
2023/12/23 02:40:21;;;;;;;23.08;16.33;;;2.40;99.90;;;;;;5102049;28;20032;-82
2023/12/23 02:42:47;;;;;;;25.00;15.48;;;2.40;99.90;;;;;;5097292;28;20020;-83
2023/12/23 02:45:13;;;;;;;24.92;16.38;;;2.30;99.90;;;;;;5106629;28;20052;-81
2023/12/23 02:47:39;;;;;;;22.98;16.20;;;2.40;99.90;;;;;;5110275;28;20529;-82
2023/12/23 02:50:05;;;;;;;24.42;16.70;;;2.40;99.90;;;;;;5100427;28;20020;-82
2023/12/23 02:52:31;;;;;;;24.33;16.52;;;2.40;99.90;;;;;;5121139;28;20102;-81
2023/12/23 02:54:57;;;;;;;24.77;15.55;;;2.30;99.90;;;;;;5126594;28;20019;-81
2023/12/23 02:57:22;;;;;;;23.00;17.25;;;2.40;99.90;;;;;;5106696;28;20028;-81
2023/12/23 02:59:48;;;;;;;24.05;16.27;;;2.30;99.90;;;;;;5094776;28;20044;-81
2023/12/23 03:02:14;;;;;;;22.02;15.35;;;2.30;99.90;;;;;;5104156;28;20089;-83
2023/12/23 03:04:40;;;;;;;18.35;13.20;;;2.30;99.90;;;;;;5112197;28;20044;-81
2023/12/23 03:07:06;;;;;;;17.77;11.73;;;2.30;99.90;;;;;;5137374;28;20069;-81
2023/12/23 03:09:31;;;;;;;18.13;14.15;;;2.30;99.90;;;;;;5128124;28;20713;-80
2023/12/23 03:11:57;;;;;;;15.95;12.15;;;2.20;99.90;;;;;;5109173;28;20024;-80
2023/12/23 03:14:23;;;;;;;14.88;10.40;;;2.20;99.90;;;;;;5113607;28;20488;-81
2023/12/23 03:16:49;;;;;;;18.17;13.52;;;2.20;99.90;;;;;;5100441;28;20388;-81
2023/12/23 03:19:15;;;;;;;18.85;12.48;;;2.20;99.90;;;;;;5112528;28;20019;-80
2023/12/23 03:21:44;;;;;;;16.48;11.63;;;2.20;99.90;;;;;;5102348;28;20477;-80
2023/12/23 03:24:10;;;;;;;14.93;11.38;;;2.30;99.90;;;;;;5091270;28;20118;-81
2023/12/23 03:26:37;;;;;;;18.13;11.75;;;2.30;99.90;;;;;;5102857;28;20078;-81
2023/12/23 03:29:07;;;;;;;15.43;10.15;;;2.30;99.90;;;;;;5096807;28;20756;-80
2023/12/23 03:31:35;;;;;;;17.58;12.48;;;2.20;99.90;;;;;;5093010;28;20419;-81
2023/12/23 03:34:02;;;;;;;16.90;11.27;;;2.30;99.90;;;;;;5094221;28;20103;-80
2023/12/23 03:36:28;;;;;;;15.07;10.75;;;2.30;99.90;;;;;;5103421;28;20425;-80
2023/12/23 03:38:55;;;;;;;16.55;11.30;;;2.30;99.90;;;;;;5110746;28;20080;-80
2023/12/23 03:41:22;;;;;;;14.05;10.43;;;2.40;99.90;;;;;;5093275;28;20024;-81
2023/12/23 03:43:47;;;;;;;14.02;10.63;;;2.30;99.90;;;;;;5102605;28;20035;-81
2023/12/23 03:46:13;;;;;;;15.52;11.68;;;2.30;99.90;;;;;;5094777;28;20032;-81
2023/12/23 03:48:39;;;;;;;16.80;11.20;;;2.40;99.90;;;;;;5101739;28;20029;-79
2023/12/23 03:51:06;;;;;;;13.02;9.60;;;2.40;99.90;;;;;;5096773;28;20540;-80
2023/12/23 03:53:32;;;;;;;16.63;12.50;;;2.40;99.90;;;;;;5099891;28;20023;-79
2023/12/23 03:55:58;;;;;;;15.25;11.18;;;2.40;99.90;;;;;;5111367;28;20039;-79
2023/12/23 03:58:24;;;;;;;12.55;10.13;;;2.30;99.90;;;;;;5092683;28;20024;-80
2023/12/23 04:00:49;;;;;;;15.43;10.50;;;2.30;99.90;;;;;;5103915;28;20030;-81
2023/12/23 04:03:15;;;;;;;13.90;10.88;;;2.30;99.90;;;;;;5094390;28;20073;-79
2023/12/23 04:05:41;;;;;;;14.00;11.05;;;2.30;99.90;;;;;;5102052;28;20063;-82
2023/12/23 04:08:07;;;;;;;15.68;9.75;;;2.40;99.90;;;;;;5098484;28;20027;-80
2023/12/23 04:10:33;;;;;;;13.00;10.27;;;2.30;99.90;;;;;;5104842;28;20028;-81
2023/12/23 04:12:58;;;;;;;16.85;11.52;;;2.30;99.90;;;;;;5110509;28;20024;-80
2023/12/23 04:15:24;;;;;;;12.55;11.20;;;2.40;99.90;;;;;;5105867;28;20110;-83
2023/12/23 04:17:50;;;;;;;16.35;12.00;;;2.40;99.90;;;;;;5101979;28;20476;-82
2023/12/23 04:20:16;;;;;;;17.30;12.05;;;2.50;99.90;;;;;;5101886;28;20082;-83
2023/12/23 04:22:47;;;;;;;17.30;12.23;;;2.50;99.90;;;;;;5110530;28;20020;-80
2023/12/23 04:25:16;;;;;;;17.60;11.30;;;2.50;99.90;;;;;;5097363;28;20081;-81
2023/12/23 04:27:42;;;;;;;16.35;10.85;;;2.40;99.90;;;;;;5115557;28;20019;-81
2023/12/23 04:30:08;;;;;;;16.50;12.20;;;2.50;99.90;;;;;;5105675;28;20035;-81
2023/12/23 04:32:34;;;;;;;17.60;11.25;;;2.50;99.90;;;;;;5098810;28;20479;-81
2023/12/23 04:35:00;;;;;;;15.77;11.38;;;2.50;99.90;;;;;;5107625;28;20111;-80
2023/12/23 04:37:26;;;;;;;16.17;12.15;;;2.50;99.90;;;;;;5096667;28;20020;-79
2023/12/23 04:39:53;;;;;;;21.40;12.98;;;2.50;99.90;;;;;;5108699;28;20027;-81
2023/12/23 04:42:19;;;;;;;17.27;12.00;;;2.60;99.90;;;;;;5108648;28;20024;-80
2023/12/23 04:44:47;;;;;;;18.35;12.15;;;2.60;99.90;;;;;;5116575;28;20054;-83
2023/12/23 04:47:13;;;;;;;18.38;11.95;;;2.70;99.90;;;;;;5095880;28;20028;-80
2023/12/23 04:49:39;;;;;;;18.52;11.88;;;2.70;99.90;;;;;;5099394;28;20016;-86
2023/12/23 04:52:05;;;;;;;17.38;12.60;;;2.80;99.90;;;;;;5105202;28;20377;-84
2023/12/23 04:54:32;;;;;;;19.67;12.25;;;2.80;99.90;;;;;;5099868;28;20032;-84
2023/12/23 04:56:58;;;;;;;14.80;12.27;;;2.80;99.90;;;;;;5096374;28;20044;-85
2023/12/23 04:59:24;;;;;;;17.83;12.93;;;2.90;99.90;;;;;;5095895;28;20063;-83
2023/12/23 05:01:50;;;;;;;15.60;11.45;;;2.90;99.90;;;;;;5115766;28;20020;-84
2023/12/23 05:04:16;;;;;;;17.33;12.27;;;2.80;99.90;;;;;;5116501;28;20016;-85
2023/12/23 05:06:42;;;;;;;19.65;11.90;;;2.80;99.90;;;;;;5104779;28;20035;-83
2023/12/23 05:09:07;;;;;;;17.27;12.95;;;2.80;99.90;;;;;;5117431;28;20031;-83
2023/12/23 05:11:33;;;;;;;15.93;12.48;;;2.80;99.90;;;;;;5112912;28;20032;-84
2023/12/23 05:13:59;;;;;;;23.33;13.10;;;2.80;99.90;;;;;;5103383;28;20016;-85
2023/12/23 05:16:25;;;;;;;21.42;13.48;;;2.80;99.90;;;;;;5105922;28;20023;-83
2023/12/23 05:18:50;;;;;;;18.50;11.93;;;2.80;99.90;;;;;;5097794;28;20024;-84
2023/12/23 05:21:16;;;;;;;23.17;14.93;;;2.80;99.90;;;;;;5109909;28;20039;-85
2023/12/23 05:23:42;;;;;;;18.08;12.10;;;2.80;99.90;;;;;;5095599;28;20427;-84
2023/12/23 05:26:09;;;;;;;20.65;15.50;;;2.80;99.90;;;;;;5110479;28;20024;-83
2023/12/23 05:28:34;;;;;;;21.17;15.05;;;2.80;99.90;;;;;;5098006;28;20020;-85
2023/12/23 05:31:00;;;;;;;23.67;14.15;;;2.90;99.90;;;;;;5111859;28;20115;-83
2023/12/23 05:33:26;;;;;;;26.33;17.88;;;2.90;99.90;;;;;;5105603;28;20115;-84
2023/12/23 05:35:52;;;;;;;26.80;18.30;;;2.90;99.90;;;;;;5096832;28;20452;-84
2023/12/23 05:38:18;;;;;;;27.17;16.98;;;2.90;99.90;;;;;;5108042;28;20016;-84
2023/12/23 05:40:43;;;;;;;27.65;18.45;;;2.90;99.90;;;;;;5108591;28;20433;-81
2023/12/23 05:43:09;;;;;;;24.52;16.73;;;2.90;99.90;;;;;;5109255;28;20536;-82
2023/12/23 05:45:35;;;;;;;36.38;19.80;;;2.90;99.90;;;;;;5103401;28;20044;-82
2023/12/23 05:48:01;;;;;;;31.48;20.08;;;2.80;99.90;;;;;;5112661;28;20023;-82
2023/12/23 05:50:27;;;;;;;30.42;20.08;;;2.90;99.90;;;;;;5108039;28;20024;-81
2023/12/23 05:52:52;;;;;;;28.55;18.73;;;3.00;99.90;;;;;;5097823;28;20020;-80
2023/12/23 05:55:19;;;;;;;28.92;20.48;;;3.00;99.90;;;;;;5094532;28;20048;-81
2023/12/23 05:57:45;;;;;;;33.03;20.45;;;3.00;99.90;;;;;;5102076;28;20024;-81
2023/12/23 06:00:11;;;;;;;30.98;18.92;;;3.00;99.90;;;;;;5095304;28;20085;-81
2023/12/23 06:02:37;;;;;;;33.53;20.48;;;2.90;99.90;;;;;;5109239;28;20073;-81
2023/12/23 06:05:04;;;;;;;35.17;22.58;;;2.90;99.90;;;;;;5119310;28;20020;-82
2023/12/23 06:07:29;;;;;;;31.95;21.20;;;3.00;99.90;;;;;;5125991;28;20027;-80
2023/12/23 06:09:55;;;;;;;33.53;20.70;;;3.00;99.90;;;;;;5103526;28;20021;-81
2023/12/23 06:12:21;;;;;;;32.35;18.35;;;3.00;99.90;;;;;;5100501;28;20028;-82
2023/12/23 06:14:47;;;;;;;33.97;20.50;;;3.10;99.90;;;;;;5108325;28;20036;-81
2023/12/23 06:17:13;;;;;;;34.28;21.40;;;3.00;99.90;;;;;;5101686;28;20024;-81
2023/12/23 06:19:39;;;;;;;38.50;20.02;;;3.00;99.90;;;;;;5114589;28;20098;-80
2023/12/23 06:22:05;;;;;;;29.70;21.00;;;3.00;99.90;;;;;;5113381;28;20020;-80
2023/12/23 06:24:30;;;;;;;34.75;19.25;;;3.00;99.90;;;;;;5109873;28;20024;-81
2023/12/23 06:26:56;;;;;;;33.80;20.30;;;3.00;99.90;;;;;;5103570;28;20036;-80
2023/12/23 06:29:22;;;;;;;35.08;22.50;;;3.00;99.90;;;;;;5102125;28;20052;-81
2023/12/23 06:31:48;;;;;;;35.22;21.95;;;2.90;99.90;;;;;;5107967;28;20492;-82
2023/12/23 06:34:14;;;;;;;28.98;18.75;;;2.90;99.90;;;;;;5094012;28;20458;-82
2023/12/23 06:36:39;;;;;;;29.85;20.00;;;2.90;99.90;;;;;;5105383;28;20031;-80
2023/12/23 06:39:05;;;;;;;29.13;18.42;;;2.90;99.90;;;;;;5108510;28;20135;-82
2023/12/23 06:41:31;;;;;;;33.40;22.02;;;2.90;99.90;;;;;;5108151;28;20381;-84
2023/12/23 06:43:57;;;;;;;30.88;17.85;;;2.90;99.90;;;;;;5112016;28;20044;-81
2023/12/23 06:46:23;;;;;;;37.33;21.10;;;2.90;99.90;;;;;;5105195;28;20560;-84
2023/12/23 06:48:51;;;;;;;34.75;20.25;;;2.90;99.90;;;;;;5101031;28;20069;-81
2023/12/23 06:51:17;;;;;;;32.53;20.17;;;2.80;99.90;;;;;;5106768;28;20024;-81
2023/12/23 06:53:43;;;;;;;31.13;17.27;;;2.80;99.90;;;;;;5105651;28;20073;-81
2023/12/23 06:56:10;;;;;;;37.33;22.60;;;2.80;99.90;;;;;;5095486;28;20031;-82
2023/12/23 06:58:36;;;;;;;37.92;23.25;;;2.80;99.90;;;;;;5103309;28;20149;-81
2023/12/23 07:01:02;;;;;;;32.13;17.48;;;2.80;99.90;;;;;;5100219;28;20463;-81
2023/12/23 07:03:28;;;;;;;35.15;20.02;;;2.90;99.90;;;;;;5105831;28;20016;-82
2023/12/23 07:05:53;;;;;;;35.03;23.05;;;2.90;99.90;;;;;;5105192;28;20122;-81
2023/12/23 07:08:19;;;;;;;39.55;22.30;;;2.80;99.90;;;;;;5108614;28;20106;-80
2023/12/23 07:10:45;;;;;;;38.13;24.58;;;2.90;99.90;;;;;;5092079;28;20484;-82
2023/12/23 07:13:11;;;;;;;36.70;22.02;;;2.90;99.90;;;;;;5108297;28;20065;-83
2023/12/23 07:15:37;;;;;;;31.73;21.02;;;3.00;99.90;;;;;;5107158;28;20020;-81
2023/12/23 07:18:03;;;;;;;27.45;16.75;;;3.00;99.90;;;;;;5102158;28;20115;-81
2023/12/23 07:20:29;;;;;;;25.63;14.95;;;3.00;99.90;;;;;;5098387;28;20493;-83
2023/12/23 07:22:56;;;;;;;35.57;21.73;;;3.00;99.90;;;;;;5092824;28;20020;-83
2023/12/23 07:25:21;;;;;;;25.35;14.75;;;3.00;99.90;;;;;;5106642;28;20089;-82
2023/12/23 07:27:49;;;;;;;25.85;14.48;;;3.00;99.90;;;;;;5093294;28;20468;-84
2023/12/23 07:30:15;;;;;;;30.67;17.92;;;3.00;99.90;;;;;;5091708;28;20050;-81
2023/12/23 07:32:41;;;;;;;30.90;18.33;;;3.00;99.90;;;;;;5096378;28;20027;-80
2023/12/23 07:35:07;;;;;;;28.38;18.75;;;3.00;99.90;;;;;;5101478;28;20420;-80
2023/12/23 07:37:33;;;;;;;25.55;15.35;;;3.10;99.90;;;;;;5094174;28;20027;-81
2023/12/23 07:39:59;;;;;;;27.17;15.45;;;3.10;99.90;;;;;;5104914;28;20024;-81
2023/12/23 07:42:25;;;;;;;31.92;18.98;;;3.10;99.90;;;;;;5092933;28;20024;-83
2023/12/23 07:44:50;;;;;;;35.08;18.33;;;3.10;99.90;;;;;;5105347;28;20097;-81
2023/12/23 07:47:17;;;;;;;26.17;17.27;;;3.10;99.90;;;;;;5104856;28;20058;-83
2023/12/23 07:49:43;;;;;;;28.58;19.33;;;3.10;99.90;;;;;;5094282;28;20016;-82
2023/12/23 07:52:08;;;;;;;25.15;17.42;;;3.20;99.90;;;;;;5101615;28;20030;-82
2023/12/23 07:54:34;;;;;;;17.98;12.35;;;3.20;99.90;;;;;;5110788;28;20114;-80
2023/12/23 07:57:00;;;;;;;22.10;16.65;;;3.20;99.90;;;;;;5112809;28;20024;-81
2023/12/23 07:59:26;;;;;;;23.83;14.35;;;3.20;99.90;;;;;;5112274;28;20020;-82
2023/12/23 08:01:52;;;;;;;26.52;14.07;;;3.20;99.90;;;;;;5112946;28;20043;-82
2023/12/23 08:04:18;;;;;;;30.30;17.70;;;3.20;99.90;;;;;;5109821;28;20077;-81
2023/12/23 08:06:44;;;;;;;34.78;21.77;;;3.20;99.90;;;;;;5096538;28;20032;-83
2023/12/23 08:09:10;;;;;;;20.20;12.90;;;3.20;99.90;;;;;;5099311;28;20024;-81
2023/12/23 08:11:36;;;;;;;31.00;18.70;;;3.20;99.90;;;;;;5101929;28;20045;-81
2023/12/23 08:14:03;;;;;;;22.63;12.95;;;3.20;99.90;;;;;;5101841;28;20103;-83
2023/12/23 08:16:29;;;;;;;27.60;15.57;;;3.10;99.90;;;;;;5114836;28;20023;-83
2023/12/23 08:18:55;;;;;;;24.20;15.48;;;3.10;99.90;;;;;;5114375;28;20020;-82
2023/12/23 08:21:21;;;;;;;23.30;15.52;;;3.20;99.90;;;;;;5103262;28;20027;-82
2023/12/23 08:23:47;;;;;;;22.25;14.57;;;3.20;99.90;;;;;;5091385;28;20016;-85
2023/12/23 08:26:16;;;;;;;28.40;15.55;;;3.30;99.90;;;;;;5097416;28;20157;-84
2023/12/23 08:28:42;;;;;;;25.38;15.63;;;3.30;99.90;;;;;;5091717;28;20102;-83
2023/12/23 08:31:07;;;;;;;33.33;17.10;;;3.30;99.90;;;;;;5092856;28;20469;-83
2023/12/23 08:33:34;;;;;;;19.15;11.27;;;3.30;99.90;;;;;;5092440;28;20111;-82
2023/12/23 08:36:00;;;;;;;21.23;13.23;;;3.30;99.90;;;;;;5095175;28;20020;-83
2023/12/23 08:38:26;;;;;;;20.80;13.23;;;3.30;99.90;;;;;;5091850;28;20069;-83
2023/12/23 08:40:52;;;;;;;20.75;12.45;;;3.30;99.90;;;;;;5101113;28;20023;-83
2023/12/23 08:43:17;;;;;;;18.13;12.52;;;3.30;99.90;;;;;;5091715;28;20024;-83
2023/12/23 08:45:43;;;;;;;17.17;12.90;;;3.30;99.90;;;;;;5104597;28;20642;-84
2023/12/23 08:48:09;;;;;;;16.52;10.07;;;3.30;99.90;;;;;;5099116;28;20122;-82
2023/12/23 08:50:43;;;;;;;17.15;12.48;;;3.40;99.90;;;;;;5098283;28;20067;-82
2023/12/23 08:53:09;;;;;;;15.18;10.75;;;3.40;99.90;;;;;;5103695;28;20131;-83
2023/12/23 08:55:34;;;;;;;16.13;12.68;;;3.40;99.90;;;;;;5111006;28;20491;-83
2023/12/23 08:58:00;;;;;;;13.65;10.02;;;3.40;99.90;;;;;;5111057;28;20023;-86
2023/12/23 09:00:26;;;;;;;16.48;10.57;;;3.40;99.90;;;;;;5096512;28;20062;-88
2023/12/23 09:02:52;;;;;;;12.98;8.98;;;3.40;99.90;;;;;;5100497;28;20479;-86
2023/12/23 09:05:18;;;;;;;11.30;7.28;;;3.40;99.90;;;;;;5117952;28;20104;-85
2023/12/23 09:07:43;;;;;;;15.05;9.65;;;3.40;99.90;;;;;;5097727;28;20059;-85
2023/12/23 09:10:10;;;;;;;15.82;8.95;;;3.30;99.90;;;;;;5101381;28;20246;-84
2023/12/23 09:12:36;;;;;;;11.27;7.60;;;3.40;99.90;;;;;;5097729;28;20476;-83
2023/12/23 09:15:03;;;;;;;11.15;6.13;;;3.30;99.90;;;;;;5103782;28;20028;-81
2023/12/23 09:17:29;;;;;;;8.13;6.65;;;3.30;99.90;;;;;;5112068;28;20035;-83
2023/12/23 09:19:55;;;;;;;11.02;8.15;;;3.20;99.90;;;;;;5108044;28;20028;-83
2023/12/23 09:22:21;;;;;;;8.98;7.30;;;3.20;99.90;;;;;;5114829;28;20457;-83
2023/12/23 09:24:47;;;;;;;9.65;7.60;;;3.20;99.90;;;;;;5107842;28;20032;-81
2023/12/23 09:27:13;;;;;;;9.63;7.93;;;3.20;99.90;;;;;;5105110;28;20468;-82
2023/12/23 09:29:39;;;;;;;11.35;7.85;;;3.20;99.90;;;;;;5117051;28;20104;-83
2023/12/23 09:32:05;;;;;;;11.38;8.50;;;3.20;99.90;;;;;;5103333;28;20377;-82
2023/12/23 09:34:31;;;;;;;10.93;7.30;;;3.20;99.90;;;;;;5099242;28;20123;-80
2023/12/23 09:36:57;;;;;;;10.30;7.35;;;3.30;99.90;;;;;;5101977;28;20361;-82
2023/12/23 09:39:22;;;;;;;10.25;8.10;;;3.30;99.90;;;;;;5111609;28;20024;-82
2023/12/23 09:41:48;;;;;;;10.50;8.50;;;3.40;99.90;;;;;;5119737;27;20098;-81
2023/12/23 09:44:14;;;;;;;9.98;8.63;;;3.50;99.90;;;;;;5096888;28;20080;-81
2023/12/23 09:46:40;;;;;;;9.55;7.60;;;3.70;99.90;;;;;;5105410;28;20082;-81
2023/12/23 09:49:06;;;;;;;11.82;8.95;;;3.70;99.90;;;;;;5108753;28;20038;-80
2023/12/23 09:51:32;;;;;;;9.98;7.50;;;3.80;99.90;;;;;;5097262;28;20024;-82
2023/12/23 09:54:03;;;;;;;9.07;6.13;;;3.80;99.90;;;;;;5109178;28;20094;-79
2023/12/23 09:56:29;;;;;;;7.72;6.80;;;3.70;99.90;;;;;;5095702;28;20035;-81
2023/12/23 09:58:56;;;;;;;9.88;7.15;;;3.50;99.90;;;;;;5106298;28;20384;-81
2023/12/23 10:01:22;;;;;;;8.80;7.30;;;3.40;99.90;;;;;;5105189;28;20030;-81
2023/12/23 10:03:52;;;;;;;11.07;7.95;;;3.40;99.90;;;;;;5096023;28;20099;-82
2023/12/23 10:06:19;;;;;;;8.10;7.30;;;3.50;99.90;;;;;;5097130;28;20036;-82
2023/12/23 10:08:45;;;;;;;10.20;7.07;;;3.50;99.90;;;;;;5095339;28;20099;-81
2023/12/23 10:11:11;;;;;;;8.00;5.97;;;3.50;99.90;;;;;;5109459;28;20477;-81
2023/12/23 10:13:37;;;;;;;9.13;7.18;;;3.50;99.90;;;;;;5094350;28;20062;-80
2023/12/23 10:16:03;;;;;;;8.85;6.05;;;3.50;99.90;;;;;;5107073;28;20031;-82
2023/12/23 10:18:31;;;;;;;8.90;5.35;;;3.50;99.90;;;;;;5092345;28;20477;-81
2023/12/23 10:20:57;;;;;;;6.68;5.85;;;3.40;99.90;;;;;;5107849;28;20069;-82
2023/12/23 10:23:23;;;;;;;5.65;4.45;;;3.30;99.90;;;;;;5093848;28;20052;-82
2023/12/23 10:25:52;;;;;;;6.80;4.97;;;3.30;99.90;;;;;;5107802;28;20062;-81
2023/12/23 10:28:21;;;;;;;11.82;7.03;;;3.20;99.90;;;;;;5094310;28;20118;-81
2023/12/23 10:30:50;;;;;;;13.73;8.38;;;3.20;99.90;;;;;;5093768;28;20425;-81
2023/12/23 10:33:21;;;;;;;9.10;6.13;;;3.30;99.90;;;;;;5103271;28;20442;-82
2023/12/23 10:35:48;;;;;;;8.90;6.32;;;3.30;99.90;;;;;;5099241;28;20024;-83
2023/12/23 10:38:16;;;;;;;7.93;6.40;;;3.30;99.90;;;;;;5094898;28;20133;-85
2023/12/23 10:40:51;;;;;;;6.45;5.28;;;3.40;99.90;;;;;;5094561;28;20035;-82
2023/12/23 10:43:18;;;;;;;12.90;7.10;;;3.40;99.90;;;;;;5101598;28;20394;-84
2023/12/23 10:45:51;;;;;;;10.88;6.93;;;3.50;99.90;;;;;;5100429;28;20051;-84
2023/12/23 10:48:17;;;;;;;6.00;4.32;;;3.50;99.90;;;;;;5099812;28;20387;-83
2023/12/23 10:50:47;;;;;;;11.27;5.45;;;3.40;99.90;;;;;;5102055;28;20118;-83
2023/12/23 10:53:17;;;;;;;5.97;5.03;;;3.40;99.90;;;;;;5108224;28;20480;-83
2023/12/23 10:55:45;;;;;;;8.82;5.45;;;3.40;99.90;;;;;;5106181;28;20027;-84
2023/12/23 10:58:15;;;;;;;12.63;6.43;;;3.40;99.90;;;;;;5103287;28;20012;-83
2023/12/23 11:00:42;;;;;;;5.82;4.35;;;3.40;99.90;;;;;;5110659;28;20027;-85
2023/12/23 11:03:08;;;;;;;7.93;4.38;;;3.50;99.90;;;;;;5097828;28;20070;-84
2023/12/23 11:05:37;;;;;;;7.55;4.80;;;3.40;99.90;;;;;;5093385;28;20044;-83
2023/12/23 11:08:06;;;;;;;6.75;4.45;;;3.30;99.90;;;;;;5107895;28;20019;-81
2023/12/23 11:10:34;;;;;;;5.80;3.92;;;3.30;99.90;;;;;;5093753;28;20022;-82
2023/12/23 11:13:00;;;;;;;4.80;3.17;;;3.30;99.90;;;;;;5095366;28;20020;-82
2023/12/23 11:15:26;;;;;;;4.95;3.40;;;3.30;99.90;;;;;;5102274;28;20031;-82
2023/12/23 11:17:55;;;;;;;12.93;6.75;;;3.30;99.50;;;;;;5108131;28;20026;-83
2023/12/23 11:20:33;;;;;;;8.77;5.82;;;3.20;99.90;;;;;;5099403;28;20116;-84
2023/12/23 11:23:24;;;;;;;14.00;7.53;;;3.20;99.90;;;;;;5099311;28;20043;-83
2023/12/23 11:25:49;;;;;;;16.27;8.20;;;3.30;99.90;;;;;;5104972;28;20265;-82
2023/12/23 11:28:17;;;;;;;5.88;4.75;;;3.40;99.90;;;;;;5094780;28;20028;-83
2023/12/23 11:30:51;;;;;;;10.55;7.28;;;3.40;99.90;;;;;;5105650;28;20027;-83
2023/12/23 11:33:22;;;;;;;7.45;5.00;;;3.40;99.90;;;;;;5097112;28;20027;-82
2023/12/23 11:35:51;;;;;;;9.25;6.95;;;3.40;99.90;;;;;;5103377;28;20504;-82
2023/12/23 11:38:17;;;;;;;5.43;4.55;;;3.40;99.90;;;;;;5099687;28;20020;-82
2023/12/23 11:40:44;;;;;;;8.35;5.90;;;3.40;99.90;;;;;;5104565;28;20019;-80
2023/12/23 11:43:10;;;;;;;9.60;5.80;;;3.40;99.90;;;;;;5105442;28;20092;-82
2023/12/23 11:45:39;;;;;;;9.07;5.32;;;3.30;99.80;;;;;;5104872;28;20093;-83
2023/12/23 11:48:07;;;;;;;4.78;3.38;;;3.30;99.90;;;;;;5099191;28;20046;-83
2023/12/23 11:50:33;;;;;;;8.45;5.72;;;3.30;99.70;;;;;;5102852;28;20466;-85
2023/12/23 11:52:59;;;;;;;9.60;6.68;;;3.20;99.80;;;;;;5119872;28;20042;-84
2023/12/23 11:55:25;;;;;;;5.97;4.97;;;3.20;99.80;;;;;;5105726;28;20103;-83
2023/12/23 11:57:52;;;;;;;7.25;4.63;;;3.20;99.90;;;;;;5103622;28;20090;-84
2023/12/23 12:00:18;;;;;;;6.95;4.70;;;3.10;99.70;;;;;;5092950;28;20016;-87
2023/12/23 12:02:45;;;;;;;8.73;5.82;;;3.10;99.90;;;;;;5109418;28;20024;-87
2023/12/23 12:05:12;;;;;;;7.00;5.15;;;3.10;99.90;;;;;;5103773;28;20031;-83
2023/12/23 12:07:38;;;;;;;5.53;4.55;;;3.10;99.90;;;;;;5098523;28;20465;-85
2023/12/23 12:10:04;;;;;;;7.18;4.95;;;3.10;99.90;;;;;;5102929;28;20899;-86
2023/12/23 12:12:30;;;;;;;7.55;5.47;;;3.00;99.90;;;;;;5100819;28;20060;-84
2023/12/23 12:14:56;;;;;;;6.53;5.05;;;3.00;99.90;;;;;;5093573;28;20020;-89
2023/12/23 12:17:29;;;;;;;9.13;5.00;;;3.10;99.90;;;;;;5097316;28;20108;-91
2023/12/23 12:20:09;;;;;;;6.93;4.82;;;3.10;99.90;;;;;;5104671;28;20114;-83
2023/12/23 12:22:35;;;;;;;8.73;5.55;;;3.10;99.90;;;;;;5100499;28;20030;-85
2023/12/23 12:25:01;;;;;;;5.82;4.53;;;3.20;99.90;;;;;;5095266;28;20390;-86
2023/12/23 12:27:28;;;;;;;8.10;5.63;;;3.20;99.90;;;;;;5106116;28;20020;-85
2023/12/23 12:29:54;;;;;;;13.90;4.45;;;3.20;99.90;;;;;;5096720;28;20020;-87
2023/12/23 12:32:22;;;;;;;7.60;5.97;;;3.20;99.90;;;;;;5097507;28;20027;-87
2023/12/23 12:34:48;;;;;;;5.85;4.43;;;3.10;99.90;;;;;;5100091;28;20051;-88
2023/12/23 12:37:13;;;;;;;8.63;4.97;;;3.10;99.90;;;;;;5106243;28;20020;-89
2023/12/23 12:39:40;;;;;;;7.65;4.70;;;3.00;99.90;;;;;;5121031;28;20032;-83